Time;durP1;ratioP1;P1;durP2;ratioP2;P2;SDS_P1;SDS_P2;PMS_P1;PMS_P2;Temp;Humidity;BMP_temperature;BMP_pressure;BME280_temperature;BME280_humidity;BME280_pressure;Samples;Min_cycle;Max_cycle;Signal;HPM_P1;HPM_P2
2022/04/23 00:02:05;;;;;;;15.40;12.43;;;16.90;49.60;;;-142.21;70.42;112049.66;5072709;28;20448;-76
2022/04/23 00:04:32;;;;;;;13.07;11.30;;;16.90;49.90;;;-142.21;70.68;112049.66;5074085;28;20556;-77
2022/04/23 00:07:00;;;;;;;12.33;10.97;;;16.80;50.10;;;-142.21;70.72;112049.66;5071895;28;20443;-76
2022/04/23 00:09:28;;;;;;;14.30;11.23;;;16.80;49.90;;;-142.21;72.68;112049.66;5072537;28;20459;-76
2022/04/23 00:11:56;;;;;;;13.17;11.77;;;16.80;49.80;;;-142.21;70.54;112049.66;5072172;28;20865;-76
2022/04/23 00:14:23;;;;;;;13.17;11.77;;;16.70;49.90;;;-142.21;70.82;112049.66;5070927;28;21243;-75
2022/04/23 00:16:51;;;;;;;12.73;11.43;;;16.80;50.10;;;-142.21;70.12;112049.66;5063627;28;20479;-77
2022/04/23 00:19:19;;;;;;;13.17;11.63;;;16.80;49.80;;;-142.21;70.88;112049.66;5071044;28;20447;-76
2022/04/23 00:21:46;;;;;;;12.77;11.47;;;16.80;49.90;;;-142.21;71.25;112049.66;5069313;28;20450;-74
2022/04/23 00:24:14;;;;;;;14.23;11.93;;;16.80;49.70;;;-142.21;73.14;112049.66;5071581;28;20450;-75
2022/04/23 00:26:42;;;;;;;13.23;11.83;;;16.70;50.10;;;-142.21;70.66;112049.66;5072244;28;20493;-75
2022/04/23 00:29:10;;;;;;;14.73;12.27;;;16.60;50.20;;;-142.21;71.55;112049.66;5071874;28;20511;-74
2022/04/23 00:31:37;;;;;;;12.80;11.47;;;16.60;50.50;;;-142.21;73.68;112049.66;5071061;28;20447;-75
2022/04/23 00:34:04;;;;;;;13.50;12.10;;;16.50;50.70;;;-142.21;72.75;112049.66;5076061;28;20455;-76
2022/04/23 00:36:33;;;;;;;14.57;11.60;;;16.40;51.20;;;-142.21;74.54;112049.66;5072197;28;20982;-75
2022/04/23 00:39:01;;;;;;;13.23;11.47;;;16.40;51.10;;;-142.21;73.16;112049.66;5069575;28;20459;-76
2022/04/23 00:41:47;;;;;;;12.77;11.47;;;16.30;51.10;;;-142.21;73.94;112049.66;5074938;28;20980;-75
2022/04/23 00:44:16;;;;;;;12.63;11.33;;;16.30;51.30;;;-142.21;73.89;112049.66;5076006;28;20531;-76
2022/04/23 00:46:45;;;;;;;15.40;12.30;;;16.20;51.10;;;-142.21;75.18;112049.66;5057090;28;20872;-76
2022/04/23 00:49:15;;;;;;;13.53;12.10;;;16.30;51.30;;;-142.21;75.96;112049.66;5068780;28;20551;-75
2022/04/23 00:51:43;;;;;;;14.87;12.40;;;16.30;51.40;;;-142.21;77.04;112049.66;5074785;28;20443;-76
2022/04/23 00:54:11;;;;;;;13.53;12.13;;;16.20;51.40;;;-142.21;77.03;112049.66;5040145;28;20444;-78
2022/04/23 00:56:40;;;;;;;12.43;11.07;;;16.20;51.40;;;-142.21;78.66;112049.66;5051538;28;20478;-76
2022/04/23 00:59:09;;;;;;;14.57;12.73;;;16.10;51.70;;;-142.21;78.03;112049.66;5075448;28;20538;-75
2022/04/23 01:01:40;;;;;;;14.63;12.90;;;16.00;52.40;;;-142.21;77.80;112049.66;5073808;28;20982;-75
2022/04/23 01:04:08;;;;;;;14.83;12.57;;;16.00;51.70;;;-142.21;78.96;112049.66;5075371;28;20474;-75
2022/04/23 01:06:36;;;;;;;13.60;12.20;;;16.00;52.50;;;-142.21;78.72;112049.66;5076231;28;20439;-76
2022/04/23 01:09:07;;;;;;;14.20;12.47;;;15.80;52.10;;;-142.21;82.22;112049.66;5074084;28;20487;-76
2022/04/23 01:11:36;;;;;;;15.17;12.27;;;15.70;52.30;;;-142.21;80.59;112049.66;5075041;28;20881;-75
2022/04/23 01:14:03;;;;;;;17.33;12.83;;;15.80;52.60;;;-142.21;80.86;112049.66;5074177;28;20508;-74
2022/04/23 01:16:31;;;;;;;14.97;12.83;;;15.70;52.50;;;-142.21;80.85;112049.66;5068958;28;20448;-74
2022/04/23 01:19:00;;;;;;;15.57;12.83;;;15.70;52.60;;;-142.21;81.66;112049.66;5074663;28;20447;-75
2022/04/23 01:21:28;;;;;;;13.77;12.17;;;15.70;53.30;;;-142.21;82.88;112049.66;5074588;28;20440;-74
2022/04/23 01:23:58;;;;;;;15.47;13.00;;;15.70;52.60;;;-142.21;80.07;112049.66;5074392;28;20449;-74
2022/04/23 01:26:27;;;;;;;14.87;13.27;;;15.70;52.90;;;-142.21;81.38;112049.66;5074563;28;20546;-74
2022/04/23 01:28:57;;;;;;;16.40;13.23;;;15.70;52.90;;;-142.21;81.09;112049.66;5072535;28;20841;-75
2022/04/23 01:31:25;;;;;;;13.90;11.93;;;15.60;53.10;;;-142.21;83.90;112049.66;5071440;28;20448;-76
2022/04/23 01:33:52;;;;;;;16.10;13.40;;;15.60;53.10;;;-142.21;82.41;112049.66;5074865;28;20531;-75
2022/04/23 01:36:20;;;;;;;15.00;13.33;;;15.60;53.00;;;-142.21;81.33;112049.66;5074494;28;20881;-74
2022/04/23 01:38:49;;;;;;;16.67;13.63;;;15.60;52.90;;;-142.21;80.62;112049.66;5074614;28;20543;-76
2022/04/23 01:41:16;;;;;;;15.37;13.20;;;15.50;53.00;;;-142.21;82.14;112049.66;5074489;28;20831;-76
2022/04/23 01:43:43;;;;;;;15.03;12.33;;;15.50;53.70;;;-142.21;80.99;112049.66;5069060;28;20448;-76
2022/04/23 01:46:11;;;;;;;14.17;12.63;;;15.60;53.10;;;-142.21;80.90;112049.66;5056401;28;20987;-75
2022/04/23 01:48:38;;;;;;;15.77;12.87;;;15.60;52.80;;;-142.21;82.39;112049.66;5073756;28;20934;-75
2022/04/23 01:51:05;;;;;;;15.83;12.80;;;15.50;52.90;;;-142.21;81.73;112049.66;5067933;28;20514;-76
2022/04/23 01:53:33;;;;;;;15.23;12.87;;;15.60;52.80;;;-142.21;82.65;112049.66;5070559;28;20534;-75
2022/04/23 01:56:01;;;;;;;17.50;14.00;;;15.50;53.00;;;-142.21;82.47;112049.66;5035930;28;20436;-75
2022/04/23 01:58:28;;;;;;;18.30;12.67;;;15.40;53.10;;;-142.21;82.83;112049.66;5066176;28;20537;-76
2022/04/23 02:00:59;;;;;;;15.13;12.60;;;15.50;53.30;;;-142.21;82.02;112049.66;5073129;28;20446;-75
2022/04/23 02:03:28;;;;;;;14.53;12.23;;;15.40;53.00;;;-142.21;83.88;112049.66;5073870;28;20548;-76
2022/04/23 02:05:55;;;;;;;14.77;12.90;;;15.40;53.40;;;-142.21;82.57;112049.66;5074531;28;20443;-74
2022/04/23 02:08:23;;;;;;;15.13;13.10;;;15.40;53.30;;;-142.21;83.09;112049.66;5072729;28;20963;-75
2022/04/23 02:10:52;;;;;;;15.77;12.83;;;15.40;53.00;;;-142.21;82.88;112049.66;5054616;28;20461;-75
2022/04/23 02:13:20;;;;;;;17.80;13.93;;;15.40;53.40;;;-142.21;83.84;112049.66;5073432;28;20452;-75
2022/04/23 02:15:50;;;;;;;15.80;12.90;;;15.30;53.60;;;-142.21;85.46;112049.66;5073056;28;20526;-76
2022/04/23 02:18:17;;;;;;;18.47;12.73;;;15.20;53.80;;;-142.21;84.53;112049.66;5037696;28;20489;-76
2022/04/23 02:20:45;;;;;;;16.17;13.47;;;15.20;53.70;;;-142.21;83.95;112049.66;5072723;28;20450;-75
2022/04/23 02:23:12;;;;;;;15.30;12.93;;;15.20;53.90;;;-142.21;83.83;112049.66;5037684;28;20542;-75
2022/04/23 02:25:39;;;;;;;14.33;12.60;;;15.20;53.50;;;-142.21;84.88;112049.66;5072597;28;20444;-76
2022/04/23 02:28:06;;;;;;;15.57;12.13;;;15.20;53.70;;;-142.21;84.83;112049.66;5073327;28;20451;-76
2022/04/23 02:30:35;;;;;;;14.90;13.07;;;15.20;53.70;;;-142.21;84.94;112049.66;5073339;28;20428;-75
2022/04/23 02:33:02;;;;;;;15.97;13.27;;;15.30;53.70;;;-142.21;85.03;112049.66;5072994;28;20810;-75
2022/04/23 02:35:30;;;;;;;15.40;12.67;;;15.30;53.60;;;-142.21;86.07;112049.66;5073045;28;20458;-74
2022/04/23 02:38:00;;;;;;;14.30;12.80;;;15.20;54.00;;;-142.21;87.86;112049.66;5072296;28;20519;-75
2022/04/23 02:40:27;;;;;;;17.33;13.53;;;15.10;54.40;;;-142.21;87.95;112049.66;5073232;28;21009;-76
2022/04/23 02:42:54;;;;;;;15.43;12.23;;;15.10;54.40;;;-142.21;86.81;112049.66;5071204;28;20771;-75
2022/04/23 02:45:23;;;;;;;14.37;11.97;;;15.00;54.30;;;-142.21;88.21;112049.66;5072913;28;20458;-75
2022/04/23 02:47:53;;;;;;;17.13;12.73;;;15.00;54.60;;;-142.21;87.78;112049.66;5072491;28;20800;-74
2022/04/23 02:50:26;;;;;;;15.90;12.90;;;15.00;54.90;;;-142.21;87.72;112049.66;5073557;28;20447;-74
2022/04/23 02:52:56;;;;;;;14.83;13.10;;;14.90;54.90;;;-142.21;89.59;112049.66;5068068;28;20522;-74
2022/04/23 02:55:24;;;;;;;14.63;12.53;;;14.80;55.20;;;-142.21;88.57;112049.66;5063705;28;20452;-74
2022/04/23 02:57:52;;;;;;;14.03;12.23;;;14.80;55.30;;;-142.21;87.76;112049.66;5072874;28;20479;-75
2022/04/23 03:00:20;;;;;;;16.63;12.20;;;14.70;55.30;;;-142.21;87.78;112049.66;5073033;28;20474;-75
2022/04/23 03:02:48;;;;;;;15.63;12.73;;;14.70;55.30;;;-142.21;88.73;112049.66;5072093;28;20509;-75
2022/04/23 03:05:17;;;;;;;14.87;11.97;;;14.90;55.20;;;-142.21;91.01;112049.66;5072134;28;20448;-74
2022/04/23 03:07:45;;;;;;;15.87;12.13;;;14.80;55.40;;;-142.21;89.46;112049.66;5072268;28;20446;-77
2022/04/23 03:10:16;;;;;;;13.30;11.87;;;14.90;55.50;;;-142.21;89.75;112049.66;5072178;28;20465;-76
2022/04/23 03:12:44;;;;;;;15.63;12.23;;;14.90;55.70;;;-142.21;90.04;112049.66;5072071;28;20451;-76
2022/04/23 03:15:13;;;;;;;14.80;11.57;;;14.80;56.00;;;-142.21;89.14;112049.66;5071910;28;20800;-75
2022/04/23 03:17:41;;;;;;;14.73;12.43;;;14.80;55.80;;;-142.21;89.61;112049.66;5072380;28;20522;-74
2022/04/23 03:20:12;;;;;;;14.37;11.60;;;14.70;55.90;;;-142.21;90.77;112049.66;5071915;28;20462;-76
2022/04/23 03:22:42;;;;;;;13.83;12.37;;;14.70;55.90;;;-142.21;89.94;112049.66;5072186;28;20466;-75
2022/04/23 03:25:12;;;;;;;14.90;12.10;;;14.70;56.20;;;-142.21;91.19;112049.66;5072410;28;20511;-75
2022/04/23 03:27:39;;;;;;;13.70;11.57;;;14.70;56.30;;;-142.21;91.59;112049.66;5071877;28;20440;-74
2022/04/23 03:30:07;;;;;;;13.37;11.93;;;14.70;56.40;;;-142.21;90.49;112049.66;5071567;28;20514;-75
2022/04/23 03:32:35;;;;;;;15.03;12.07;;;14.70;56.30;;;-142.21;91.17;112049.66;5071633;28;20927;-75
2022/04/23 03:35:05;;;;;;;17.37;12.03;;;14.70;56.20;;;-142.21;91.62;112049.66;5069298;28;20475;-75
2022/04/23 03:37:33;;;;;;;14.93;12.10;;;14.70;57.00;;;-142.21;91.74;112049.66;5085836;28;20471;-74
2022/04/23 03:40:05;;;;;;;14.40;12.77;;;14.60;56.50;;;-142.21;92.26;112049.66;5072230;28;20459;-76
2022/04/23 03:42:33;;;;;;;14.13;12.13;;;14.60;57.10;;;-142.21;91.91;112049.66;5069919;28;20805;-75
2022/04/23 03:45:00;;;;;;;15.57;12.63;;;14.50;57.00;;;-142.21;92.31;112049.66;5071722;28;20439;-75
2022/04/23 03:47:27;;;;;;;15.43;11.77;;;14.50;57.20;;;-142.21;93.72;112049.66;5071504;28;20479;-76
2022/04/23 03:49:54;;;;;;;13.43;11.43;;;14.40;57.70;;;-142.21;93.82;112049.66;5053089;28;20435;-76
2022/04/23 03:52:22;;;;;;;13.93;12.43;;;14.40;57.80;;;-142.21;92.47;112049.66;5071918;28;20538;-74
2022/04/23 03:54:49;;;;;;;14.83;11.70;;;14.40;57.90;;;-142.21;92.75;112049.66;5070912;28;20474;-76
2022/04/23 03:57:17;;;;;;;16.97;12.30;;;14.40;58.30;;;-142.21;94.11;112049.66;5071593;28;20802;-75
2022/04/23 03:59:44;;;;;;;14.13;11.47;;;14.40;58.30;;;-142.21;93.92;112049.66;5064987;28;20455;-76
2022/04/23 04:02:11;;;;;;;13.67;11.90;;;14.30;58.90;;;-142.21;93.42;112049.66;5071549;28;20444;-75
2022/04/23 04:04:41;;;;;;;13.90;11.40;;;14.40;58.20;;;-142.21;93.38;112049.66;5070918;28;20503;-75
2022/04/23 04:07:08;;;;;;;15.47;12.60;;;14.30;58.20;;;-142.21;94.29;112049.66;5070031;28;20506;-75
2022/04/23 04:09:36;;;;;;;14.47;11.80;;;14.30;58.40;;;-142.21;94.27;112049.66;5071796;28;20585;-76
2022/04/23 04:12:06;;;;;;;16.40;12.17;;;14.30;58.60;;;-142.21;95.83;112049.66;5070929;28;20447;-76
2022/04/23 04:14:37;;;;;;;14.87;12.50;;;14.40;59.20;;;-142.21;96.29;112049.66;5068597;28;20440;-76
2022/04/23 04:17:09;;;;;;;16.30;12.13;;;14.40;59.30;;;-142.21;97.46;112049.66;5070954;28;20539;-76
2022/04/23 04:19:37;;;;;;;15.67;12.60;;;14.40;59.50;;;-142.21;96.48;112049.66;5071824;28;20468;-76
2022/04/23 04:22:06;;;;;;;14.00;12.00;;;14.30;59.90;;;-142.21;95.92;112049.66;5071046;28;20460;-76
2022/04/23 04:24:34;;;;;;;15.47;12.17;;;14.20;59.50;;;-142.21;97.11;112049.66;5071550;28;20447;-77
2022/04/23 04:27:01;;;;;;;16.40;12.63;;;14.20;59.80;;;-142.21;97.34;112049.66;5070768;28;20447;-76
2022/04/23 04:29:29;;;;;;;15.17;11.97;;;14.20;59.70;;;-142.21;97.77;112049.66;5070914;28;21012;-76
2022/04/23 04:31:58;;;;;;;14.90;11.70;;;14.20;60.20;;;-142.21;98.28;112049.66;5070778;28;20470;-75
2022/04/23 04:34:29;;;;;;;14.07;11.67;;;14.20;60.50;;;-142.21;98.19;112049.66;5071523;28;20444;-75
2022/04/23 04:37:04;;;;;;;13.63;11.97;;;14.20;60.50;;;-142.21;96.88;112049.66;5070999;28;20467;-75
2022/04/23 04:39:32;;;;;;;15.03;12.30;;;14.20;59.90;;;-142.21;98.94;112049.66;5071343;28;20851;-75
2022/04/23 04:42:00;;;;;;;16.57;11.80;;;14.10;62.00;;;-142.21;97.99;112049.66;5071094;28;20462;-76
2022/04/23 04:44:28;;;;;;;15.27;12.50;;;14.10;60.90;;;-142.21;98.53;112049.66;5071138;28;20497;-76
2022/04/23 04:46:57;;;;;;;16.23;12.27;;;14.10;61.00;;;-142.21;97.94;112049.66;5052500;28;20955;-76
2022/04/23 04:49:24;;;;;;;14.07;11.93;;;14.10;60.90;;;-142.21;97.64;112049.66;5071037;28;20968;-75
2022/04/23 04:51:52;;;;;;;15.10;12.23;;;14.00;61.00;;;-142.21;97.08;112049.66;5071370;28;20527;-76
2022/04/23 04:54:21;;;;;;;14.13;11.87;;;14.00;61.10;;;-142.21;96.81;112049.66;5035160;28;20461;-76
2022/04/23 04:56:48;;;;;;;16.17;12.30;;;14.00;61.10;;;-142.21;98.97;112049.66;5071159;28;20451;-76
2022/04/23 04:59:16;;;;;;;13.93;11.80;;;14.00;62.00;;;-142.21;99.69;112049.66;5070444;28;20483;-78
2022/04/23 05:01:43;;;;;;;14.13;11.50;;;14.00;62.20;;;-142.21;96.91;112049.66;5071198;28;20529;-75
2022/04/23 05:04:12;;;;;;;15.40;12.50;;;13.90;61.10;;;-142.21;97.14;112049.66;5069724;28;20690;-76
2022/04/23 05:06:39;;;;;;;13.90;11.77;;;14.00;61.30;;;-142.21;99.10;112049.66;5063727;28;20535;-76
2022/04/23 05:09:08;;;;;;;16.27;12.70;;;14.10;63.50;;;-142.21;96.95;112049.66;5060664;28;20454;-75
2022/04/23 05:11:35;;;;;;;14.60;11.70;;;14.10;61.50;;;-142.21;98.20;112049.66;5070701;28;20533;-74
2022/04/23 05:14:02;;;;;;;13.37;11.37;;;14.10;62.30;;;-142.21;97.82;112049.66;5070973;28;20469;-75
2022/04/23 05:16:29;;;;;;;14.90;11.73;;;14.10;61.40;;;-142.21;96.78;112049.66;5070841;28;20443;-76
2022/04/23 05:18:57;;;;;;;11.93;10.63;;;14.20;61.90;;;-142.21;97.55;112049.66;5072928;28;20483;-75
2022/04/23 05:21:25;;;;;;;14.13;11.37;;;14.20;61.70;;;-142.21;97.53;112049.66;5074694;28;20808;-77
2022/04/23 05:23:52;;;;;;;13.23;11.67;;;14.30;62.10;;;-142.21;96.77;112049.66;5074538;28;20443;-76
2022/04/23 05:26:19;;;;;;;13.10;11.70;;;14.20;61.50;;;-142.21;96.44;112049.66;5073855;28;20485;-76
2022/04/23 05:28:47;;;;;;;15.10;12.10;;;14.20;61.40;;;-142.21;98.04;112049.66;5073469;28;20885;-75
2022/04/23 05:31:14;;;;;;;11.53;10.33;;;14.20;62.20;;;-142.21;97.41;112049.66;5074841;28;20850;-76
2022/04/23 05:33:41;;;;;;;12.77;11.33;;;14.30;61.20;;;-142.21;97.19;112049.66;5073928;28;20447;-75
2022/04/23 05:36:08;;;;;;;11.80;10.17;;;14.40;61.30;;;-142.21;97.60;112049.66;5075498;28;20794;-75
2022/04/23 05:38:37;;;;;;;12.00;10.53;;;14.60;61.60;;;-142.21;96.76;112049.66;5073864;28;20483;-76
2022/04/23 05:41:05;;;;;;;11.80;10.43;;;14.80;60.90;;;-142.21;97.92;112049.66;5073903;28;20829;-76
2022/04/23 05:43:32;;;;;;;13.27;11.77;;;14.80;61.10;;;-142.21;96.88;112049.66;5072298;28;20496;-75
2022/04/23 05:46:00;;;;;;;11.47;9.87;;;14.80;60.40;;;-142.21;97.05;112049.66;5072988;28;20485;-75
2022/04/23 05:48:27;;;;;;;12.03;10.40;;;14.90;60.50;;;-142.21;99.18;112049.66;5073513;28;20477;-75
2022/04/23 05:50:55;;;;;;;12.00;10.70;;;15.00;60.80;;;-142.21;97.18;112049.66;5072947;28;20483;-75
2022/04/23 05:53:22;;;;;;;12.93;11.00;;;15.00;59.70;;;-142.21;96.12;112049.66;5073189;28;20447;-76
2022/04/23 05:55:50;;;;;;;10.63;9.53;;;15.00;60.20;;;-142.21;95.77;112049.66;5073134;28;20448;-75
2022/04/23 05:58:18;;;;;;;11.10;9.83;;;15.00;59.80;;;-142.21;97.00;112049.66;5073952;28;20485;-76
2022/04/23 06:00:45;;;;;;;11.63;10.30;;;15.10;60.50;;;-142.21;98.83;112049.66;5073832;28;20458;-75
2022/04/23 06:03:12;;;;;;;10.83;9.37;;;15.10;60.20;;;-142.21;96.00;112049.66;5072917;28;21063;-75
2022/04/23 06:05:40;;;;;;;12.73;9.67;;;15.10;59.60;;;-142.21;96.17;112049.66;5073079;28;20447;-76
2022/04/23 06:08:08;;;;;;;10.63;9.53;;;15.20;59.50;;;-142.21;97.99;112049.66;5072996;28;20530;-76
2022/04/23 06:10:36;;;;;;;10.53;9.27;;;15.20;60.50;;;-142.21;95.14;112049.66;5068713;28;20509;-76
2022/04/23 06:13:08;;;;;;;9.90;8.77;;;15.20;59.70;;;-142.21;95.07;112049.66;5072553;28;20880;-76
2022/04/23 06:15:36;;;;;;;10.57;9.20;;;15.20;59.40;;;-142.21;95.87;112049.66;5073169;28;20440;-76
2022/04/23 06:18:03;;;;;;;11.60;9.80;;;15.10;60.00;;;-142.21;95.24;112049.66;5071850;28;20454;-76
2022/04/23 06:20:30;;;;;;;10.80;9.40;;;15.10;59.90;;;-142.21;95.48;112049.66;5073590;28;20493;-75
2022/04/23 06:22:57;;;;;;;10.27;8.70;;;15.20;60.00;;;-142.21;95.61;112049.66;5073167;28;20451;-75
2022/04/23 06:25:24;;;;;;;9.93;8.73;;;15.40;60.00;;;-142.21;93.99;112049.66;5071248;28;20534;-76
2022/04/23 06:27:52;;;;;;;9.23;8.23;;;15.30;59.60;;;-142.21;94.49;112049.66;5073382;28;20447;-75
2022/04/23 06:30:20;;;;;;;12.33;8.73;;;15.40;59.70;;;-142.21;95.16;112049.66;5071371;28;20513;-75
2022/04/23 06:32:47;;;;;;;8.90;7.97;;;15.50;59.70;;;-142.21;93.96;112049.66;5072698;28;20483;-76
2022/04/23 06:35:15;;;;;;;8.00;7.20;;;15.60;59.40;;;-142.21;94.24;112049.66;5072217;28;20527;-76
2022/04/23 06:37:44;;;;;;;8.07;7.27;;;15.80;59.60;;;-142.21;93.77;112049.66;5071687;28;20677;-74
2022/04/23 06:40:13;;;;;;;7.20;6.43;;;16.00;59.00;;;-142.21;92.41;112049.66;5053232;28;20480;-76
2022/04/23 06:42:40;;;;;;;7.13;6.37;;;16.00;58.80;;;-142.21;91.62;112049.66;5072957;28;20994;-74
2022/04/23 06:45:09;;;;;;;6.83;6.23;;;16.10;58.40;;;-142.21;89.69;112049.66;5071908;28;20454;-75
2022/04/23 06:47:37;;;;;;;6.50;5.80;;;16.10;58.20;;;-142.21;89.90;112049.66;5066524;28;20462;-74
2022/04/23 06:50:07;;;;;;;6.73;6.00;;;16.20;58.20;;;-142.21;89.81;112049.66;5072771;28;20530;-75
2022/04/23 06:52:34;;;;;;;7.20;5.83;;;16.30;57.30;;;-142.21;90.06;112049.66;5073282;28;20447;-75
2022/04/23 06:55:01;;;;;;;5.60;5.10;;;16.60;57.00;;;-142.21;88.86;112049.66;5076749;28;20475;-77
2022/04/23 06:57:29;;;;;;;6.07;5.47;;;17.20;55.30;;;-142.21;88.48;112049.66;5075015;28;20497;-76
2022/04/23 06:59:56;;;;;;;5.93;5.33;;;17.40;54.60;;;-142.21;89.32;112049.66;5074960;28;20563;-76
2022/04/23 07:02:23;;;;;;;5.77;5.27;;;17.30;54.90;;;-142.21;88.53;112049.66;5075347;28;20451;-76
2022/04/23 07:04:52;;;;;;;6.20;5.23;;;17.10;55.40;;;-142.21;88.05;112049.66;5073012;28;20535;-75
2022/04/23 07:07:19;;;;;;;5.53;5.00;;;17.20;55.10;;;-142.21;86.73;112049.66;5073004;28;20542;-75
2022/04/23 07:09:46;;;;;;;6.10;5.50;;;16.90;55.10;;;-142.21;87.92;112049.66;5072354;28;20538;-76
2022/04/23 07:12:14;;;;;;;5.80;5.20;;;16.70;56.00;;;-142.21;87.05;112049.66;5072677;28;20475;-76
2022/04/23 07:14:42;;;;;;;5.83;5.23;;;16.70;56.10;;;-142.21;86.65;112049.66;5072124;28;20940;-74
2022/04/23 07:17:10;;;;;;;5.57;4.97;;;16.70;55.90;;;-142.21;87.48;112049.66;5071339;28;20834;-75
2022/04/23 07:19:40;;;;;;;6.07;4.93;;;17.00;56.40;;;-142.21;86.14;112049.66;5072047;28;20488;-75
2022/04/23 07:22:09;;;;;;;5.40;4.90;;;17.00;55.50;;;-142.21;88.05;112049.66;5070428;28;20958;-76
2022/04/23 07:24:37;;;;;;;5.30;4.80;;;17.10;56.10;;;-142.21;84.03;112049.66;5072606;28;20530;-75
2022/04/23 07:27:04;;;;;;;5.70;5.10;;;17.00;55.00;;;-142.21;84.34;112049.66;5071724;28;20454;-74
2022/04/23 07:29:32;;;;;;;5.37;4.87;;;16.90;55.20;;;-142.21;86.20;112049.66;5072485;28;20471;-75
2022/04/23 07:32:01;;;;;;;5.87;5.23;;;16.90;55.90;;;-142.21;84.85;112049.66;5071553;28;20450;-75
2022/04/23 07:37:29;;;;;;;5.27;4.77;;;16.90;55.50;;;-142.21;84.87;112049.66;5066886;28;20426;-74
2022/04/23 07:39:58;;;;;;;4.93;4.43;;;17.00;55.60;;;-142.21;87.11;112049.66;5071504;28;20487;-74
2022/04/23 07:42:25;;;;;;;6.50;4.70;;;17.00;56.20;;;-142.21;85.32;112049.66;5071620;28;20451;-75
2022/04/23 07:44:53;;;;;;;7.97;6.30;;;17.10;55.60;;;-142.21;86.83;112049.66;5072016;28;20451;-76
2022/04/23 07:47:20;;;;;;;5.27;4.77;;;17.30;56.00;;;-142.21;81.66;112049.66;5071385;28;20530;-74
2022/04/23 07:49:47;;;;;;;7.87;5.97;;;17.30;55.20;;;-142.21;81.99;112049.66;5072024;28;20444;-75
2022/04/23 07:52:16;;;;;;;5.37;4.87;;;17.30;55.50;;;-142.21;84.23;112049.66;5070992;28;20534;-75
2022/04/23 07:54:44;;;;;;;5.90;5.30;;;17.30;55.30;;;-142.21;83.54;112049.66;5071721;28;20530;-75
2022/04/23 07:57:12;;;;;;;5.90;5.03;;;17.40;55.30;;;-142.21;81.36;112049.66;5071162;28;20456;-75
2022/04/23 07:59:43;;;;;;;7.03;5.37;;;17.50;55.10;;;-142.21;81.92;112049.66;5071129;28;20483;-75
2022/04/23 08:02:11;;;;;;;5.90;4.93;;;17.50;54.80;;;-142.21;80.14;112049.66;5071266;28;20444;-74
2022/04/23 08:04:38;;;;;;;8.40;5.80;;;17.50;55.00;;;-142.21;82.61;112049.66;5071675;28;20443;-75
2022/04/23 08:07:06;;;;;;;5.90;5.30;;;17.60;54.80;;;-142.21;78.77;112049.66;5071341;28;20452;-74
2022/04/23 08:09:39;;;;;;;8.63;6.27;;;17.70;53.50;;;-142.21;79.72;112049.66;5071863;28;20455;-75
2022/04/23 08:12:07;;;;;;;5.63;4.70;;;17.70;54.60;;;-142.21;79.81;112049.66;5070721;28;20448;-75
2022/04/23 08:14:35;;;;;;;7.00;5.83;;;17.90;53.80;;;-142.21;80.98;112049.66;5070957;28;20449;-75
2022/04/23 08:17:02;;;;;;;5.40;4.90;;;18.00;54.00;;;-142.21;80.57;112049.66;5071495;28;20447;-77
2022/04/23 08:19:30;;;;;;;5.27;4.73;;;18.10;54.10;;;-142.21;78.34;112049.66;5052465;28;20557;-75
2022/04/23 08:21:57;;;;;;;4.83;4.33;;;18.10;53.60;;;-142.21;79.36;112049.66;5071653;28;20485;-76
2022/04/23 08:24:24;;;;;;;5.23;4.70;;;18.40;53.70;;;-142.21;77.37;112049.66;5070925;28;20443;-75
2022/04/23 08:26:53;;;;;;;4.77;4.30;;;18.40;53.40;;;-142.21;77.21;112049.66;5071436;28;20482;-76
2022/04/23 08:32:06;;;;;;;6.30;5.63;;;18.50;53.00;;;-142.21;76.09;112049.66;5063398;28;20450;-76
2022/04/23 08:34:33;;;;;;;5.17;4.67;;;18.40;53.20;;;-142.21;76.84;112049.66;5070636;28;20453;-76
2022/04/23 08:37:00;;;;;;;4.53;4.13;;;18.60;53.40;;;-142.21;75.50;112049.66;5052233;28;20445;-75
2022/04/23 08:39:28;;;;;;;4.90;4.40;;;18.70;53.00;;;-142.21;74.90;112049.66;5051535;28;20488;-75
2022/04/23 08:41:56;;;;;;;4.57;3.90;;;18.90;52.40;;;-142.21;74.44;112049.66;5051127;28;20874;-76
2022/04/23 08:44:24;;;;;;;4.70;4.30;;;19.00;51.90;;;-142.21;73.78;112049.66;5051681;28;20456;-76
2022/04/23 08:46:55;;;;;;;4.63;4.13;;;19.10;52.50;;;-142.21;69.74;112049.66;5050947;28;20444;-75
2022/04/23 08:49:30;;;;;;;4.70;4.20;;;19.10;51.10;;;-142.21;72.18;112049.66;5051407;28;20431;-75
2022/04/23 08:52:11;;;;;;;4.57;4.17;;;19.30;52.00;;;-142.21;70.73;112049.66;5050751;28;20471;-75
2022/04/23 08:54:40;;;;;;;5.13;4.63;;;19.40;51.40;;;-142.21;69.11;112049.66;5054242;28;20444;-74
2022/04/23 08:57:09;;;;;;;4.20;3.80;;;19.50;50.90;;;-142.21;68.79;112049.66;5055146;28;20221;-76
2022/04/23 08:59:37;;;;;;;7.63;3.80;;;19.80;50.50;;;-142.21;68.36;112049.66;5055081;28;21106;-74
2022/04/23 09:02:12;;;;;;;3.43;3.13;;;20.10;50.30;;;-142.21;65.11;112049.66;5054617;28;20450;-74
2022/04/23 09:04:42;;;;;;;4.70;3.70;;;20.90;49.60;;;-142.21;63.95;112049.66;5067551;28;20193;-75
2022/04/23 09:07:20;;;;;;;3.40;3.10;;;21.20;49.00;;;-142.21;56.04;112049.66;5074577;28;20615;-76
2022/04/23 09:09:51;;;;;;;3.27;2.97;;;21.20;47.40;;;-142.21;59.01;112049.66;5074659;28;20208;-76
2022/04/23 09:12:24;;;;;;;3.67;3.37;;;22.30;47.70;;;-142.21;57.79;112049.66;5074889;28;20596;-77
2022/04/23 09:14:53;;;;;;;3.70;3.20;;;23.70;46.40;;;-142.21;55.94;112049.66;5074506;28;20272;-75
2022/04/23 09:25:47;;;;;;;2.90;2.70;;;24.00;42.20;;;-142.21;58.39;112049.66;5073163;28;20277;-75
2022/04/23 09:28:22;;;;;;;3.37;3.07;;;23.50;44.10;;;-142.21;58.48;112049.66;5073740;28;20237;-76
2022/04/23 09:30:52;;;;;;;3.00;2.80;;;23.00;43.80;;;-142.21;56.37;112049.66;5074386;28;20279;-75
2022/04/23 09:33:21;;;;;;;2.70;2.50;;;22.70;44.10;;;-142.21;57.00;112049.66;5072029;28;20209;-75
2022/04/23 09:35:56;;;;;;;2.90;2.70;;;22.30;44.90;;;-142.21;56.39;112049.66;5063070;28;20249;-76
2022/04/23 09:38:24;;;;;;;3.63;3.23;;;22.10;45.50;;;-142.21;56.27;112049.66;5073943;28;20201;-75
2022/04/23 09:40:53;;;;;;;5.90;2.90;;;22.00;45.20;;;-142.21;54.88;112049.66;5074762;28;20237;-76
2022/04/23 09:43:29;;;;;;;3.00;2.70;;;21.80;45.40;;;-142.21;58.56;112049.66;5073929;28;20292;-75
2022/04/23 09:46:05;;;;;;;3.73;3.10;;;21.80;46.30;;;-142.21;56.58;112049.66;5074158;28;20685;-76
2022/04/23 09:48:33;;;;;;;2.97;2.77;;;21.60;46.10;;;-142.21;56.68;112049.66;5073870;28;20208;-75
2022/04/23 09:51:02;;;;;;;3.47;3.17;;;21.20;46.90;;;-142.21;58.69;112049.66;5074402;28;20228;-75
2022/04/23 09:53:29;;;;;;;4.97;2.90;;;21.20;47.40;;;-142.21;59.28;112049.66;5073292;28;20300;-74
2022/04/23 09:56:04;;;;;;;2.87;2.67;;;21.10;47.70;;;-142.21;59.86;112049.66;5074345;28;20645;-76
2022/04/23 09:58:33;;;;;;;2.70;2.50;;;21.00;47.80;;;-142.21;61.27;112049.66;5073440;28;20239;-75
2022/04/23 10:01:01;;;;;;;3.13;2.83;;;21.10;48.30;;;-142.21;57.81;112049.66;5074078;28;20240;-75
2022/04/23 10:03:31;;;;;;;3.00;2.80;;;21.20;47.70;;;-142.21;55.82;112049.66;5073127;28;20704;-75
2022/04/23 10:05:59;;;;;;;2.93;2.73;;;21.00;46.90;;;-142.21;56.94;112049.66;5072950;28;20289;-75
2022/04/23 10:08:29;;;;;;;4.50;2.73;;;21.10;48.10;;;-142.21;58.58;112049.66;5073390;28;20630;-75
2022/04/23 10:11:04;;;;;;;3.37;3.07;;;21.10;47.80;;;-142.21;54.91;112049.66;5073696;28;20233;-75
2022/04/23 10:13:39;;;;;;;3.17;2.87;;;21.00;46.80;;;-142.21;60.44;112049.66;5073028;28;20254;-75